EDT,Max TemperatureF,Mean TemperatureF,Min TemperatureF,Max Dew PointF,MeanDew PointF,Min DewpointF,Max Humidity, Mean Humidity, Min Humidity, Max Sea Level PressureIn, Mean Sea Level PressureIn, Min Sea Level PressureIn, Max VisibilityMiles, Mean VisibilityMiles, Min VisibilityMiles, Max Wind SpeedMPH, Mean Wind SpeedMPH, Max Gust SpeedMPH,PrecipitationIn, CloudCover, Events, WindDirDegrees
2012-10-1,61,55,49,54,51,47,96,84,72,29.81,29.64,29.60,10,9,2,9,3,17,0.08,7,Rain,200
2012-10-2,73,63,53,52,51,49,89,68,47,30.05,29.92,29.80,10,10,9,15,5,24,0.00,3,,271
2012-10-3,73,60,47,57,51,46,96,72,47,30.22,30.15,30.06,10,10,8,8,2,12,0.00,3,,338
2012-10-4,62,57,51,54,49,44,100,80,60,30.26,30.14,30.04,10,9,2,8,2,10,0.48,8,Rain,99
2012-10-5,69,60,51,58,53,48,100,82,63,30.04,29.96,29.88,10,7,2,8,2,13,0.14,7,Rain,164
2012-10-6,69,57,45,61,54,44,100,87,73,29.88,29.77,29.62,10,6,0,22,5,30,0.62,7,Fog-Rain,277
2012-10-7,54,47,39,44,39,36,92,71,50,30.06,30.00,29.85,10,10,9,14,4,21,0.11,5,Rain,291
2012-10-8,53,42,31,43,34,27,96,67,38,30.40,30.20,30.04,10,9,5,21,6,25,0.22,3,Rain,303
2012-10-9,55,42,28,34,29,25,96,64,32,30.45,30.35,30.22,10,10,9,12,2,14,0.00,1,,112
2012-10-10,55,43,31,54,43,29,100,86,71,30.22,29.90,29.59,10,8,2,20,3,33,0.62,7,Rain,123
2012-10-11,51,44,36,44,33,25,74,55,36,30.04,29.83,29.60,10,10,10,25,10,38,T,4,Rain,278
2012-10-12,48,42,35,36,30,25,79,64,49,30.24,30.01,29.89,10,10,10,24,8,32,T,6,,300
2012-10-13,46,38,30,27,22,19,75,56,37,30.35,30.31,30.25,10,10,10,20,7,28,0.00,0,,289
2012-10-14,41,37,33,39,34,28,100,85,70,30.29,30.14,29.97,10,6,1,6,1,10,0.17,8,Rain-Snow,122
2012-10-15,60,50,40,58,50,39,100,93,86,29.96,29.73,29.58,10,5,0,14,2,21,0.41,8,Fog-Rain-Thunderstorm,193
2012-10-16,54,49,43,52,44,31,100,79,58,29.74,29.58,29.51,10,6,2,21,8,35,0.45,8,Rain,300
2012-10-17,57,45,33,34,29,24,89,59,28,30.02,29.91,29.76,10,10,10,16,6,25,0.00,0,,296
2012-10-18,61,46,30,42,35,28,96,69,41,30.21,30.14,30.03,10,10,7,8,1,13,0.00,0,,134
2012-10-19,60,49,38,53,45,36,100,80,60,30.22,30.13,29.91,10,7,0,14,5,20,0.18,7,Fog-Rain,109
2012-10-20,65,61,56,63,60,54,100,95,90,29.89,29.72,29.61,10,5,0,12,6,17,0.50,8,Fog-Rain,129
2012-10-21,60,55,50,51,43,39,86,69,51,29.73,29.70,29.66,10,10,10,14,7,21,T,5,Rain,278
2012-10-22,56,51,46,42,37,33,71,59,46,29.89,29.77,29.70,10,10,10,18,9,28,T,6,Rain,287
2012-10-23,54,45,36,33,30,27,70,56,41,30.15,30.02,29.91,10,10,10,17,7,22,0.00,0,,300
2012-10-24,56,43,29,30,26,18,85,54,22,30.28,30.18,30.12,10,10,10,12,3,15,0.00,0,,315
2012-10-25,54,40,25,31,27,22,92,64,35,30.39,30.33,30.29,10,10,8,6,0,8,0.00,0,,310
2012-10-26,58,44,30,46,38,28,96,77,57,30.28,30.22,30.14,10,10,6,8,1,10,0.00,1,,132
2012-10-27,66,53,40,51,45,41,100,78,56,30.17,30.13,30.09,10,6,0,6,0,9,0.00,6,Fog,80
2012-10-28,54,46,38,48,42,36,96,84,71,30.18,30.12,30.02,10,7,1,13,5,17,0.00,6,Rain,41
2012-10-29,59,55,50,54,52,49,96,91,86,30.03,29.91,29.84,10,4,1,23,13,29,0.11,8,Rain,73
2012-10-30,63,59,54,61,58,52,100,93,86,29.85,29.80,29.72,10,4,1,23,11,32,1.66,8,Rain-Thunderstorm,94
2012-10-31,64,58,52,61,57,51,100,89,78,29.73,29.60,29.51,10,7,2,17,6,25,0.36,8,Rain-Thunderstorm,119